createdAt,value
2019-01-29T00:00:26.598Z,7.20
2019-01-29T00:01:26.686Z,9.30
2019-01-29T00:02:26.773Z,6.70
2019-01-29T00:03:26.862Z,5.30
2019-01-29T00:04:26.948Z,9.60
2019-01-29T00:05:27.038Z,6.80
2019-01-29T00:06:27.123Z,5.20
2019-01-29T00:07:27.279Z,10.80
2019-01-29T00:08:27.303Z,6.30
2019-01-29T00:09:27.388Z,7.50
2019-01-29T00:10:27.474Z,8.50
2019-01-29T00:11:27.562Z,9.00
2019-01-29T00:12:27.646Z,7.40
2019-01-29T00:13:27.736Z,8.20
2019-01-29T00:14:27.819Z,7.70
2019-01-29T00:15:27.912Z,9.30
2019-01-29T00:16:27.994Z,8.10
2019-01-29T00:17:28.081Z,11.30
2019-01-29T00:18:28.168Z,8.50
2019-01-29T00:19:28.256Z,12.80
2019-01-29T00:20:28.357Z,11.30
2019-01-29T00:21:28.444Z,8.80
2019-01-29T00:22:33.384Z,14.30
2019-01-29T00:23:28.615Z,8.60
2019-01-29T00:24:28.703Z,11.00
2019-01-29T00:25:28.793Z,10.00
2019-01-29T00:26:28.873Z,8.60
2019-01-29T00:27:28.964Z,9.00
2019-01-29T00:28:29.052Z,9.00
2019-01-29T00:29:29.138Z,7.20
2019-01-29T00:30:29.225Z,7.80
2019-01-29T00:31:29.310Z,7.50
2019-01-29T00:32:29.399Z,9.20
2019-01-29T00:33:29.487Z,10.70
2019-01-29T00:34:29.574Z,7.80
2019-01-29T00:35:29.659Z,8.70
2019-01-29T00:36:29.751Z,9.80
2019-01-29T00:37:29.836Z,7.90
2019-01-29T00:38:29.922Z,7.70
2019-01-29T00:39:30.009Z,8.50
2019-01-29T00:40:30.109Z,10.90
2019-01-29T00:41:30.177Z,7.30
2019-01-29T00:42:30.265Z,8.20
2019-01-29T00:43:30.350Z,9.90
2019-01-29T00:44:30.437Z,9.60
2019-01-29T00:45:30.520Z,7.70
2019-01-29T00:46:30.605Z,10.40
2019-01-29T00:47:30.692Z,8.30
2019-01-29T00:48:30.779Z,7.60
2019-01-29T00:49:30.866Z,9.10
2019-01-29T00:50:30.953Z,8.00
2019-01-29T00:51:31.043Z,7.00
2019-01-29T00:52:31.127Z,7.10
2019-01-29T00:53:31.213Z,8.20
2019-01-29T00:54:31.300Z,8.60
2019-01-29T00:55:31.387Z,7.60
2019-01-29T00:56:31.474Z,11.60
2019-01-29T00:57:31.565Z,10.70
2019-01-29T00:58:40.321Z,6.80
2019-01-29T00:59:31.783Z,8.50
2019-01-29T01:00:31.870Z,9.20
2019-01-29T01:01:31.954Z,10.40
2019-01-29T01:02:32.049Z,6.80
2019-01-29T01:03:32.172Z,10.30
2019-01-29T01:04:32.220Z,7.70
2019-01-29T01:05:32.294Z,10.10
2019-01-29T01:06:32.404Z,10.30
2019-01-29T01:07:32.466Z,10.30
2019-01-29T01:08:32.546Z,12.10
2019-01-29T01:09:32.640Z,9.70
2019-01-29T01:10:32.725Z,12.80
2019-01-29T01:11:32.825Z,9.00
2019-01-29T01:12:32.909Z,10.40
2019-01-29T01:13:32.987Z,11.10
2019-01-29T01:14:33.066Z,7.70
2019-01-29T01:15:33.156Z,9.50
2019-01-29T01:16:33.249Z,9.60
2019-01-29T01:17:33.330Z,10.60
2019-01-29T01:18:33.417Z,8.40
2019-01-29T01:19:33.502Z,9.60
2019-01-29T01:20:33.619Z,11.20
2019-01-29T01:21:33.708Z,7.50
2019-01-29T01:22:33.813Z,9.40
2019-01-29T01:23:33.875Z,7.20
2019-01-29T01:24:33.960Z,8.80
2019-01-29T01:25:34.058Z,10.30
2019-01-29T01:26:34.137Z,9.70
2019-01-29T01:27:34.226Z,8.30
2019-01-29T01:28:34.319Z,11.60
2019-01-29T01:29:34.394Z,7.80
2019-01-29T01:30:34.480Z,7.60
2019-01-29T01:31:34.570Z,8.60
2019-01-29T01:32:34.675Z,7.10
2019-01-29T01:33:34.748Z,6.70
2019-01-29T01:34:34.814Z,7.60
2019-01-29T01:35:34.898Z,6.60
2019-01-29T01:36:35.849Z,7.50
2019-01-29T01:37:35.820Z,6.00
2019-01-29T01:38:35.810Z,8.70
2019-01-29T01:39:35.305Z,5.60
2019-01-29T01:40:35.424Z,7.80
2019-01-29T01:41:35.544Z,7.10
2019-01-29T01:42:35.643Z,7.20
2019-01-29T01:43:36.158Z,6.60
2019-01-29T01:44:35.868Z,6.20
2019-01-29T01:45:35.944Z,7.90
2019-01-29T01:46:36.120Z,11.10
2019-01-29T01:47:36.104Z,7.90
2019-01-29T01:48:36.191Z,6.30
2019-01-29T01:49:36.335Z,5.60
2019-01-29T01:50:36.535Z,9.10
2019-01-29T01:51:36.534Z,7.40
2019-01-29T01:52:36.666Z,8.90
2019-01-29T01:53:36.758Z,6.40
2019-01-29T01:54:36.859Z,6.40
2019-01-29T01:55:36.951Z,5.80
2019-01-29T01:56:37.055Z,6.90
2019-01-29T01:57:37.282Z,6.50
2019-01-29T01:58:37.258Z,4.50
2019-01-29T01:59:37.432Z,7.50
2019-01-29T02:00:37.424Z,6.60
2019-01-29T02:01:37.509Z,8.70
2019-01-29T02:02:37.596Z,6.90
2019-01-29T02:03:37.682Z,5.00
2019-01-29T02:04:37.771Z,6.20
2019-01-29T02:05:37.850Z,6.20
2019-01-29T02:06:37.933Z,9.60
2019-01-29T02:07:38.022Z,8.10
2019-01-29T02:08:38.110Z,5.30
2019-01-29T02:09:38.206Z,5.70
2019-01-29T02:10:38.285Z,6.90
2019-01-29T02:11:38.374Z,6.90
2019-01-29T02:12:38.455Z,6.20
2019-01-29T02:13:38.543Z,6.40
2019-01-29T02:14:38.633Z,7.20
2019-01-29T02:15:38.723Z,6.60
2019-01-29T02:16:38.807Z,8.00
2019-01-29T02:17:38.896Z,7.40
2019-01-29T02:18:38.979Z,4.90
2019-01-29T02:19:39.066Z,7.00
2019-01-29T02:20:39.151Z,8.60
2019-01-29T02:21:39.238Z,7.00
2019-01-29T02:22:39.323Z,7.90
2019-01-29T02:23:39.412Z,4.70
2019-01-29T02:24:39.500Z,6.00
2019-01-29T02:25:39.591Z,9.30
2019-01-29T02:26:39.675Z,6.20
2019-01-29T02:27:39.761Z,7.10
2019-01-29T02:28:39.865Z,7.20
2019-01-29T02:29:39.935Z,6.20
2019-01-29T02:30:40.036Z,6.00
2019-01-29T02:31:40.114Z,5.60
2019-01-29T02:32:40.202Z,8.60
2019-01-29T02:33:40.287Z,4.30
2019-01-29T02:34:40.379Z,6.30
2019-01-29T02:35:40.530Z,7.50
2019-01-29T02:36:40.550Z,5.30
2019-01-29T02:37:40.641Z,7.60
2019-01-29T02:38:40.728Z,6.20
2019-01-29T02:39:40.817Z,6.20
2019-01-29T02:40:40.907Z,6.60
2019-01-29T02:41:40.990Z,7.10
2019-01-29T02:42:41.066Z,6.50
2019-01-29T02:43:41.157Z,6.00
2019-01-29T02:44:41.455Z,6.50
2019-01-29T02:45:41.700Z,7.30
2019-01-29T02:46:41.617Z,4.30
2019-01-29T02:47:41.685Z,5.80
2019-01-29T02:48:41.763Z,7.30
2019-01-29T02:49:41.843Z,7.40
2019-01-29T02:50:41.932Z,8.20
2019-01-29T02:51:42.175Z,6.50
2019-01-29T02:52:42.081Z,7.10
2019-01-29T02:53:42.173Z,7.00
2019-01-29T02:54:42.258Z,6.30
2019-01-29T02:55:42.369Z,5.50
2019-01-29T02:56:42.433Z,5.40
2019-01-29T02:57:42.521Z,6.40
2019-01-29T02:58:42.608Z,7.20
2019-01-29T02:59:42.697Z,5.00
2019-01-29T03:00:42.784Z,5.90
2019-01-29T03:01:42.869Z,6.30
2019-01-29T03:02:42.960Z,6.60
2019-01-29T03:03:43.043Z,6.20
2019-01-29T03:04:43.136Z,7.30
2019-01-29T03:05:43.215Z,6.60
2019-01-29T03:06:43.298Z,6.60
2019-01-29T03:07:43.384Z,7.70
2019-01-29T03:08:43.468Z,9.10
2019-01-29T03:09:43.553Z,6.80
2019-01-29T03:10:43.645Z,6.90
2019-01-29T03:11:43.730Z,8.60
2019-01-29T03:12:43.813Z,6.90
2019-01-29T03:13:43.902Z,7.50
2019-01-29T03:14:44.005Z,9.80
2019-01-29T03:15:44.077Z,8.30
2019-01-29T03:16:44.163Z,7.10
2019-01-29T03:17:44.249Z,8.10
2019-01-29T03:18:44.330Z,6.70
2019-01-29T03:19:44.414Z,7.60
2019-01-29T03:20:44.502Z,4.90
2019-01-29T03:21:44.587Z,7.10
2019-01-29T03:22:44.675Z,6.10
2019-01-29T03:23:44.760Z,5.20
2019-01-29T03:24:44.852Z,6.90
2019-01-29T03:25:44.930Z,7.10
2019-01-29T03:26:45.018Z,6.80
2019-01-29T03:27:45.130Z,12.30
2019-01-29T03:28:45.193Z,12.80
2019-01-29T03:29:45.278Z,16.00
2019-01-29T03:30:45.368Z,10.70
2019-01-29T03:31:45.465Z,9.40
2019-01-29T03:32:45.544Z,8.80
2019-01-29T03:33:45.629Z,9.40
2019-01-29T03:34:45.715Z,10.10
2019-01-29T03:35:45.803Z,9.60
2019-01-29T03:36:45.899Z,11.40
2019-01-29T03:37:45.984Z,13.00
2019-01-29T03:38:46.079Z,15.70
2019-01-29T03:39:46.161Z,12.10
2019-01-29T03:40:46.250Z,10.30
2019-01-29T03:41:46.337Z,12.40
2019-01-29T03:42:46.443Z,12.70
2019-01-29T03:43:46.529Z,9.90
2019-01-29T03:44:46.625Z,11.90
2019-01-29T03:45:46.700Z,9.00
2019-01-29T03:46:46.789Z,10.90
2019-01-29T03:47:46.877Z,10.40
2019-01-29T03:48:46.963Z,7.30
2019-01-29T03:49:47.117Z,7.90
2019-01-29T03:50:47.143Z,9.90
2019-01-29T03:51:47.246Z,6.60
2019-01-29T03:52:47.354Z,6.70
2019-01-29T03:53:47.372Z,8.00
2019-01-29T03:54:47.462Z,10.00
2019-01-29T03:55:47.549Z,7.60
2019-01-29T03:56:47.635Z,9.30
2019-01-29T03:57:47.723Z,9.70
2019-01-29T03:58:47.811Z,7.90
2019-01-29T03:59:47.945Z,7.10
2019-01-29T04:00:47.986Z,8.90
2019-01-29T04:01:48.054Z,10.80
2019-01-29T04:02:48.141Z,8.50
2019-01-29T04:03:48.229Z,9.20
2019-01-29T04:04:48.313Z,10.00
2019-01-29T04:05:48.402Z,9.50
2019-01-29T04:06:48.492Z,10.00
2019-01-29T04:07:48.575Z,9.60
2019-01-29T04:08:48.667Z,6.90
2019-01-29T04:09:48.751Z,8.10
2019-01-29T04:10:48.847Z,8.10
2019-01-29T04:11:48.905Z,8.60
2019-01-29T04:12:49.022Z,9.60
2019-01-29T04:13:49.071Z,9.50
2019-01-29T04:14:49.160Z,8.10
2019-01-29T04:15:49.245Z,9.00
2019-01-29T04:16:49.336Z,8.00
2019-01-29T04:17:49.423Z,9.90
2019-01-29T04:18:49.510Z,12.50
2019-01-29T04:19:49.602Z,11.80
2019-01-29T04:20:49.686Z,8.70
2019-01-29T04:21:49.777Z,10.50
2019-01-29T04:22:49.891Z,9.20
2019-01-29T04:23:49.983Z,11.10
2019-01-29T04:24:50.051Z,9.40
2019-01-29T04:25:50.119Z,11.60
2019-01-29T04:26:50.194Z,13.70
2019-01-29T04:27:50.254Z,9.50
2019-01-29T04:28:50.338Z,7.70
2019-01-29T04:29:50.427Z,10.20
2019-01-29T04:30:50.513Z,9.80
2019-01-29T04:31:50.601Z,10.60
2019-01-29T04:32:50.688Z,7.00
2019-01-29T04:33:50.778Z,10.30
2019-01-29T04:34:50.863Z,12.00
2019-01-29T04:35:50.952Z,9.50
2019-01-29T04:36:51.038Z,9.70
2019-01-29T04:37:51.129Z,10.20
2019-01-29T04:38:51.219Z,8.80
2019-01-29T04:39:51.306Z,11.50
2019-01-29T04:40:51.393Z,10.80
2019-01-29T04:41:51.480Z,11.30
2019-01-29T04:42:51.570Z,13.40
2019-01-29T04:43:51.658Z,10.80
2019-01-29T04:44:51.746Z,8.30
2019-01-29T04:45:51.835Z,12.40
2019-01-29T04:46:51.933Z,10.90
2019-01-29T04:47:52.012Z,8.50
2019-01-29T04:48:52.085Z,10.20
2019-01-29T04:49:53.610Z,7.30
2019-01-29T04:50:52.271Z,10.50
2019-01-29T04:51:52.330Z,10.80
2019-01-29T04:52:52.417Z,9.00
2019-01-29T04:53:57.562Z,8.50
2019-01-29T04:54:52.592Z,9.10
2019-01-29T04:55:52.678Z,9.70
2019-01-29T04:56:52.764Z,9.70
2019-01-29T04:57:52.851Z,9.40
2019-01-29T04:58:52.954Z,10.50
2019-01-29T04:59:53.079Z,8.00
2019-01-29T05:00:53.103Z,10.70
2019-01-29T05:01:53.190Z,10.70
2019-01-29T05:02:53.278Z,7.80
2019-01-29T05:03:53.369Z,12.60
2019-01-29T05:04:53.452Z,8.60
2019-01-29T05:05:53.539Z,9.70
2019-01-29T05:06:53.627Z,10.50
2019-01-29T05:07:53.712Z,18.10
2019-01-29T05:08:53.801Z,13.60
2019-01-29T05:09:53.905Z,14.40
2019-01-29T05:10:54.000Z,13.30
2019-01-29T05:11:54.070Z,13.70
2019-01-29T05:12:54.129Z,11.40
2019-01-29T05:13:54.208Z,12.10
2019-01-29T05:14:54.298Z,16.00
2019-01-29T05:15:54.384Z,23.10
2019-01-29T05:16:54.477Z,12.20
2019-01-29T05:17:54.561Z,11.30
2019-01-29T05:18:54.686Z,21.70
2019-01-29T05:19:54.735Z,11.20
2019-01-29T05:20:54.825Z,10.50
2019-01-29T05:21:54.910Z,12.20
2019-01-29T05:22:54.998Z,12.90
2019-01-29T05:23:55.090Z,15.90
2019-01-29T05:24:55.176Z,12.10
2019-01-29T05:25:55.257Z,11.50
2019-01-29T05:26:55.497Z,11.90
2019-01-29T05:27:55.521Z,16.80
2019-01-29T05:28:55.595Z,12.00
2019-01-29T05:29:55.656Z,13.40
2019-01-29T05:30:55.740Z,11.80
2019-01-29T05:31:55.830Z,12.90
2019-01-29T05:32:55.917Z,14.30
2019-01-29T05:33:56.004Z,14.00
2019-01-29T05:34:56.104Z,15.80
2019-01-29T05:35:56.239Z,15.10
2019-01-29T05:36:56.273Z,19.60
2019-01-29T05:37:56.355Z,14.80
2019-01-29T05:38:56.442Z,13.90
2019-01-29T05:39:56.529Z,11.40
2019-01-29T05:40:56.618Z,13.10
2019-01-29T05:41:56.703Z,16.00
2019-01-29T05:42:56.816Z,12.00
2019-01-29T05:43:56.877Z,13.20
2019-01-29T05:44:56.961Z,18.90
2019-01-29T05:45:57.046Z,11.70
2019-01-29T05:46:57.135Z,15.90
2019-01-29T05:47:57.225Z,17.30
2019-01-29T05:48:57.311Z,21.00
2019-01-29T05:49:57.396Z,13.90
2019-01-29T05:50:57.488Z,13.30
2019-01-29T05:51:57.573Z,13.70
2019-01-29T05:52:57.661Z,12.50
2019-01-29T05:53:57.747Z,15.50
2019-01-29T05:54:57.837Z,14.40
2019-01-29T05:55:57.924Z,12.60
2019-01-29T05:56:58.019Z,16.30
2019-01-29T05:57:58.104Z,19.60
2019-01-29T05:58:58.190Z,14.00
2019-01-29T05:59:58.277Z,17.70
2019-01-29T06:00:58.367Z,19.30
2019-01-29T06:01:58.452Z,17.00
2019-01-29T06:02:58.552Z,18.60
2019-01-29T06:03:58.627Z,18.20
2019-01-29T06:04:58.713Z,17.80
2019-01-29T06:05:58.799Z,16.80
2019-01-29T06:06:58.891Z,16.50
2019-01-29T06:07:58.975Z,20.20
2019-01-29T06:08:59.062Z,19.50
2019-01-29T06:09:59.150Z,13.30
2019-01-29T06:10:59.240Z,17.20
2019-01-29T06:11:59.324Z,18.20
2019-01-29T06:12:59.412Z,16.80
2019-01-29T06:13:59.501Z,15.30
2019-01-29T06:14:59.585Z,17.00
2019-01-29T06:15:59.697Z,12.90
2019-01-29T06:16:59.762Z,15.50
2019-01-29T06:17:59.853Z,15.00
2019-01-29T06:18:59.939Z,14.00
2019-01-29T06:20:00.032Z,14.50
2019-01-29T06:21:00.121Z,14.40
2019-01-29T06:22:00.211Z,14.40
2019-01-29T06:23:00.296Z,14.00
2019-01-29T06:24:00.385Z,15.90
2019-01-29T06:25:00.473Z,16.70
2019-01-29T06:26:00.561Z,14.40
2019-01-29T06:27:00.650Z,15.90
2019-01-29T06:28:00.738Z,17.20
2019-01-29T06:29:00.830Z,21.10
2019-01-29T06:30:00.914Z,16.70
2019-01-29T06:31:01.001Z,14.80
2019-01-29T06:32:01.091Z,17.90
2019-01-29T06:33:01.181Z,18.10
2019-01-29T06:34:01.266Z,16.20
2019-01-29T06:35:01.351Z,15.70
2019-01-29T06:36:01.438Z,13.80
2019-01-29T06:37:01.531Z,14.50
2019-01-29T06:38:01.613Z,15.10
2019-01-29T06:39:01.703Z,16.00
2019-01-29T06:40:01.781Z,14.30
2019-01-29T06:41:01.864Z,17.60
2019-01-29T06:42:01.969Z,15.50
2019-01-29T06:43:02.056Z,15.80
2019-01-29T06:44:02.145Z,15.40
2019-01-29T06:45:02.231Z,14.00
2019-01-29T06:46:02.318Z,18.70
2019-01-29T06:47:02.405Z,14.90
2019-01-29T06:48:02.495Z,14.90
2019-01-29T06:49:02.580Z,13.60
2019-01-29T06:50:02.668Z,13.40
2019-01-29T06:51:02.751Z,15.30
2019-01-29T06:52:02.824Z,15.10
2019-01-29T06:53:02.914Z,15.00
2019-01-29T06:54:03.000Z,13.60
2019-01-29T06:55:03.093Z,16.80
2019-01-29T06:56:03.273Z,16.20
2019-01-29T06:57:03.429Z,14.80
2019-01-29T06:58:03.368Z,17.60
2019-01-29T06:59:03.461Z,17.50
2019-01-29T07:00:04.187Z,15.50
2019-01-29T07:01:03.653Z,16.50
2019-01-29T07:02:03.736Z,13.60
2019-01-29T07:03:03.823Z,17.70
2019-01-29T07:04:03.914Z,15.80
2019-01-29T07:05:03.996Z,19.40
2019-01-29T07:06:04.087Z,15.20
2019-01-29T07:07:04.171Z,17.00
2019-01-29T07:08:04.259Z,17.80
2019-01-29T07:09:04.346Z,15.30
2019-01-29T07:10:04.435Z,17.10
2019-01-29T07:11:04.518Z,16.60
2019-01-29T07:12:04.604Z,15.60
2019-01-29T07:13:04.691Z,14.60
2019-01-29T07:14:04.780Z,14.60
2019-01-29T07:15:04.881Z,13.60
2019-01-29T07:16:04.959Z,15.00
2019-01-29T07:17:05.043Z,15.00
2019-01-29T07:18:05.127Z,16.00
2019-01-29T07:19:05.214Z,16.60
2019-01-29T07:20:05.302Z,16.60
2019-01-29T07:21:05.390Z,17.40
2019-01-29T07:22:05.479Z,14.90
2019-01-29T07:23:05.566Z,17.80
2019-01-29T07:24:05.656Z,17.30
2019-01-29T07:25:05.743Z,15.20
2019-01-29T07:26:05.828Z,15.90
2019-01-29T07:27:05.919Z,15.00
2019-01-29T07:28:06.019Z,19.30
2019-01-29T07:29:06.078Z,14.10
2019-01-29T07:30:06.167Z,14.80
2019-01-29T07:31:06.253Z,15.90
2019-01-29T07:32:06.341Z,14.80
2019-01-29T07:33:06.431Z,15.20
2019-01-29T07:34:07.572Z,14.30
2019-01-29T07:35:07.699Z,14.70
2019-01-29T07:36:06.757Z,16.70
2019-01-29T07:37:07.512Z,13.60
2019-01-29T07:38:07.620Z,15.70
2019-01-29T07:39:06.956Z,15.30
2019-01-29T07:40:07.048Z,16.10
2019-01-29T07:41:07.148Z,18.70
2019-01-29T07:42:07.238Z,21.10
2019-01-29T07:43:07.324Z,20.20
2019-01-29T07:44:07.408Z,20.60
2019-01-29T07:45:07.662Z,20.20
2019-01-29T07:46:07.939Z,18.60
2019-01-29T07:47:07.680Z,19.50
2019-01-29T07:48:07.764Z,17.60
2019-01-29T07:49:07.854Z,19.00
2019-01-29T07:50:07.944Z,21.40
2019-01-29T07:51:08.032Z,21.80
2019-01-29T07:52:08.118Z,20.40
2019-01-29T07:53:08.206Z,20.10
2019-01-29T07:54:08.293Z,21.00
2019-01-29T07:55:08.376Z,22.40
2019-01-29T07:56:08.465Z,21.00
2019-01-29T07:57:08.551Z,17.50
2019-01-29T07:58:08.640Z,17.50
2019-01-29T07:59:08.729Z,19.70
2019-01-29T08:00:08.814Z,19.30
2019-01-29T08:01:08.901Z,17.10
2019-01-29T08:02:08.987Z,18.10
2019-01-29T08:03:09.073Z,19.50
2019-01-29T08:04:09.160Z,19.70
2019-01-29T08:05:09.250Z,19.60
2019-01-29T08:06:09.341Z,20.00
2019-01-29T08:07:09.427Z,18.20
2019-01-29T08:08:09.512Z,18.80
2019-01-29T08:09:09.602Z,19.80
2019-01-29T08:10:09.688Z,20.60
2019-01-29T08:11:09.777Z,17.80
2019-01-29T08:12:11.164Z,17.70
2019-01-29T08:13:09.949Z,16.60
2019-01-29T08:14:10.036Z,17.20
2019-01-29T08:15:10.123Z,15.70
2019-01-29T08:16:10.212Z,16.30
2019-01-29T08:17:10.297Z,16.50
2019-01-29T08:18:10.387Z,15.40
2019-01-29T08:19:10.475Z,17.90
2019-01-29T08:20:10.565Z,17.10
2019-01-29T08:21:10.664Z,15.00
2019-01-29T08:22:10.750Z,16.50
2019-01-29T08:23:10.837Z,17.70
2019-01-29T08:24:10.926Z,18.90
2019-01-29T08:25:11.016Z,16.70
2019-01-29T08:26:11.101Z,17.90
2019-01-29T08:27:11.192Z,16.50
2019-01-29T08:28:11.291Z,23.60
2019-01-29T08:29:11.370Z,16.30
2019-01-29T08:30:11.459Z,19.40
2019-01-29T08:31:11.548Z,16.00
2019-01-29T08:32:11.637Z,17.80
2019-01-29T08:33:11.753Z,16.40
2019-01-29T08:34:11.847Z,17.50
2019-01-29T08:35:11.928Z,14.90
2019-01-29T08:36:12.012Z,16.70
2019-01-29T08:37:12.099Z,16.80
2019-01-29T08:38:12.188Z,14.40
2019-01-29T08:39:12.273Z,15.50
2019-01-29T08:40:12.551Z,17.40
2019-01-29T08:41:12.489Z,15.30
2019-01-29T08:42:12.577Z,17.50
2019-01-29T08:43:12.625Z,17.40
2019-01-29T08:44:12.787Z,16.60
2019-01-29T08:45:12.760Z,15.70
2019-01-29T08:46:12.866Z,14.50
2019-01-29T08:47:13.826Z,13.50
2019-01-29T08:48:13.033Z,16.30
2019-01-29T08:49:13.125Z,15.90
2019-01-29T08:50:13.210Z,16.60
2019-01-29T08:51:13.293Z,17.70
2019-01-29T08:52:13.388Z,19.50
2019-01-29T08:53:13.484Z,18.30
2019-01-29T08:54:13.565Z,17.00
2019-01-29T08:55:13.679Z,17.10
2019-01-29T08:56:13.761Z,18.40
2019-01-29T08:57:13.851Z,21.80
2019-01-29T08:58:13.940Z,17.70
2019-01-29T08:59:14.029Z,20.00
2019-01-29T09:00:14.120Z,18.60
2019-01-29T09:01:14.205Z,18.70
2019-01-29T09:02:14.319Z,16.60
2019-01-29T09:03:14.380Z,15.20
2019-01-29T09:04:14.471Z,17.50
2019-01-29T09:05:14.560Z,14.30
2019-01-29T09:06:14.651Z,13.00
2019-01-29T09:07:14.737Z,12.60
2019-01-29T09:08:14.820Z,14.60
2019-01-29T09:09:14.908Z,13.80
2019-01-29T09:10:14.995Z,14.30
2019-01-29T09:11:15.086Z,15.80
2019-01-29T09:12:15.178Z,16.00
2019-01-29T09:13:15.636Z,11.20
2019-01-29T09:14:15.403Z,12.70
2019-01-29T09:15:15.555Z,12.00
2019-01-29T09:16:15.584Z,12.00
2019-01-29T09:17:15.676Z,14.80
2019-01-29T09:18:15.763Z,11.30
2019-01-29T09:19:15.850Z,10.50
2019-01-29T09:20:15.941Z,10.90
2019-01-29T09:21:16.052Z,12.00
2019-01-29T09:22:16.114Z,11.70
2019-01-29T09:23:16.205Z,11.50
2019-01-29T09:24:16.293Z,10.90
2019-01-29T09:25:21.044Z,10.50
2019-01-29T09:26:16.470Z,9.80
2019-01-29T09:27:16.556Z,13.10
2019-01-29T09:28:18.470Z,12.70
2019-01-29T09:29:17.841Z,9.80
2019-01-29T09:30:16.823Z,14.50
2019-01-29T09:31:16.910Z,12.00
2019-01-29T09:32:16.998Z,12.40
2019-01-29T09:33:17.089Z,10.60
2019-01-29T09:34:17.177Z,9.80
2019-01-29T09:35:17.266Z,9.50
2019-01-29T09:36:17.354Z,16.50
2019-01-29T09:37:17.442Z,10.40
2019-01-29T09:38:17.531Z,11.70
2019-01-29T09:39:17.617Z,9.20
2019-01-29T09:40:17.702Z,11.90
2019-01-29T09:41:17.800Z,11.20
2019-01-29T09:42:17.895Z,13.80
2019-01-29T09:43:17.985Z,11.70
2019-01-29T09:44:18.074Z,12.70
2019-01-29T09:45:18.162Z,10.10
2019-01-29T09:46:18.250Z,11.80
2019-01-29T09:47:18.339Z,13.90
2019-01-29T09:48:18.427Z,10.60
2019-01-29T09:49:18.516Z,10.60
2019-01-29T09:50:18.608Z,10.00
2019-01-29T09:51:18.693Z,12.70
2019-01-29T09:52:18.784Z,10.90
2019-01-29T09:53:18.869Z,13.60
2019-01-29T09:54:18.959Z,11.30
2019-01-29T09:55:19.049Z,14.20
2019-01-29T09:56:19.137Z,13.80
2019-01-29T09:57:19.225Z,12.40
2019-01-29T09:58:19.309Z,11.80
2019-01-29T09:59:19.397Z,10.60
2019-01-29T10:00:21.480Z,12.00
2019-01-29T10:01:19.573Z,11.30
2019-01-29T10:02:19.661Z,10.30
2019-01-29T10:03:19.748Z,10.50
2019-01-29T10:04:19.838Z,10.00
2019-01-29T10:05:19.927Z,12.50
2019-01-29T10:06:20.017Z,9.20
2019-01-29T10:07:20.107Z,10.50
2019-01-29T10:08:20.192Z,11.10
2019-01-29T10:09:20.282Z,10.50
2019-01-29T10:10:20.370Z,10.80
2019-01-29T10:11:20.463Z,11.50
2019-01-29T10:12:20.548Z,10.80
2019-01-29T10:13:20.639Z,10.20
2019-01-29T10:14:20.727Z,12.90
2019-01-29T10:15:20.814Z,17.30
2019-01-29T10:16:20.916Z,13.90
2019-01-29T10:17:21.003Z,11.20
2019-01-29T10:18:21.095Z,10.90
2019-01-29T10:19:21.187Z,13.00
2019-01-29T10:20:21.271Z,13.80
2019-01-29T10:21:21.359Z,11.80
2019-01-29T10:22:21.447Z,15.70
2019-01-29T10:23:21.539Z,13.70
2019-01-29T10:24:21.637Z,12.30
2019-01-29T10:25:21.715Z,14.40
2019-01-29T10:26:21.805Z,13.20
2019-01-29T10:27:21.890Z,12.70
2019-01-29T10:28:21.974Z,13.50
2019-01-29T10:29:22.062Z,12.00
2019-01-29T10:30:22.152Z,14.10
2019-01-29T10:31:24.279Z,12.50
2019-01-29T10:32:22.330Z,12.00
2019-01-29T10:33:22.725Z,13.70
2019-01-29T10:34:22.547Z,15.30
2019-01-29T10:35:22.644Z,13.00
2019-01-29T10:36:23.332Z,12.80
2019-01-29T10:37:22.860Z,12.40
2019-01-29T10:38:22.948Z,12.00
2019-01-29T10:39:23.037Z,12.80
2019-01-29T10:40:23.302Z,13.50
2019-01-29T10:41:23.275Z,14.90
2019-01-29T10:42:23.504Z,12.30
2019-01-29T10:43:23.970Z,12.70
2019-01-29T10:44:23.610Z,12.30
2019-01-29T10:45:23.754Z,12.70
2019-01-29T10:46:24.614Z,12.00
2019-01-29T10:47:24.774Z,12.60
2019-01-29T10:48:23.871Z,11.80
2019-01-29T10:49:23.961Z,13.60
2019-01-29T10:50:24.055Z,10.20
2019-01-29T10:51:24.146Z,11.60
2019-01-29T10:52:24.287Z,10.30
2019-01-29T10:53:24.923Z,11.80
2019-01-29T10:54:25.460Z,11.50
2019-01-29T10:55:24.552Z,9.50
2019-01-29T10:56:24.695Z,9.80
2019-01-29T10:57:24.841Z,9.80
2019-01-29T10:58:24.922Z,10.10
2019-01-29T10:59:25.014Z,10.20
2019-01-29T11:00:25.109Z,10.40
2019-01-29T11:01:25.202Z,10.00
2019-01-29T11:02:25.299Z,9.70
2019-01-29T11:03:25.392Z,10.90
2019-01-29T11:04:25.483Z,12.90
2019-01-29T11:05:25.573Z,11.70
2019-01-29T11:06:25.663Z,11.50
2019-01-29T11:07:25.752Z,10.10
2019-01-29T11:08:25.843Z,8.80
2019-01-29T11:09:25.939Z,8.50
2019-01-29T11:10:26.026Z,7.70
2019-01-29T11:11:26.111Z,7.40
2019-01-29T11:12:26.199Z,7.60
2019-01-29T11:13:26.288Z,9.80
2019-01-29T11:14:26.380Z,11.30
2019-01-29T11:15:26.471Z,13.00
2019-01-29T11:16:26.559Z,9.60
2019-01-29T11:17:26.647Z,11.50
2019-01-29T11:18:26.738Z,12.30
2019-01-29T11:19:26.826Z,10.40
2019-01-29T11:20:27.187Z,13.90
2019-01-29T11:21:27.010Z,11.90
2019-01-29T11:22:27.097Z,10.30
2019-01-29T11:23:27.206Z,9.80
2019-01-29T11:24:27.298Z,9.80
2019-01-29T11:25:27.406Z,9.60
2019-01-29T11:26:28.086Z,10.70
2019-01-29T11:27:27.558Z,12.30
2019-01-29T11:28:27.648Z,8.60
2019-01-29T11:29:27.736Z,9.30
2019-01-29T11:30:27.827Z,8.00
2019-01-29T11:31:29.562Z,8.80
2019-01-29T11:32:28.003Z,9.30
2019-01-29T11:33:28.094Z,9.90
2019-01-29T11:34:28.177Z,8.40
2019-01-29T11:35:28.264Z,9.50
2019-01-29T11:36:28.352Z,10.20
2019-01-29T11:37:28.441Z,8.10
2019-01-29T11:38:28.531Z,7.80
2019-01-29T11:39:28.619Z,7.50
2019-01-29T11:40:28.711Z,8.00
2019-01-29T11:41:28.798Z,10.40
2019-01-29T11:42:28.887Z,10.70
2019-01-29T11:43:28.975Z,8.70
2019-01-29T11:44:29.064Z,9.40
2019-01-29T11:45:29.154Z,7.00
2019-01-29T11:46:29.244Z,10.00
2019-01-29T11:47:29.333Z,9.30
2019-01-29T11:48:29.422Z,8.10
2019-01-29T11:49:29.509Z,6.80
2019-01-29T11:50:29.601Z,9.30
2019-01-29T11:51:29.688Z,9.90
2019-01-29T11:52:29.783Z,8.60
2019-01-29T11:53:29.873Z,10.30
2019-01-29T11:54:29.967Z,7.50
2019-01-29T11:55:30.051Z,7.70
2019-01-29T11:56:30.141Z,8.40
2019-01-29T11:57:30.235Z,8.40
2019-01-29T11:58:30.324Z,9.80
2019-01-29T11:59:30.409Z,9.90
2019-01-29T12:00:30.501Z,7.80
2019-01-29T12:01:30.592Z,7.30
2019-01-29T12:02:30.682Z,8.10
2019-01-29T12:03:30.771Z,6.80
2019-01-29T12:04:30.866Z,7.90
2019-01-29T12:05:30.939Z,7.90
2019-01-29T12:06:31.039Z,8.10
2019-01-29T12:07:31.130Z,8.90
2019-01-29T12:08:31.217Z,9.90
2019-01-29T12:09:31.315Z,7.90
2019-01-29T12:10:31.422Z,11.30
2019-01-29T12:11:31.470Z,7.00
2019-01-29T12:12:31.560Z,9.40
2019-01-29T12:13:31.643Z,8.50
2019-01-29T12:14:31.730Z,7.60
2019-01-29T12:15:31.818Z,9.20
2019-01-29T12:16:31.905Z,8.60
2019-01-29T12:17:31.993Z,8.50
2019-01-29T12:18:32.083Z,6.20
2019-01-29T12:19:32.173Z,7.90
2019-01-29T12:20:32.265Z,6.10
2019-01-29T12:21:32.353Z,8.00
2019-01-29T12:22:32.440Z,6.90
2019-01-29T12:23:32.529Z,8.50
2019-01-29T12:24:32.619Z,7.60
2019-01-29T12:25:32.710Z,7.10
2019-01-29T12:26:32.796Z,8.60
2019-01-29T12:27:32.887Z,8.40
2019-01-29T12:28:32.971Z,7.10
2019-01-29T12:29:33.067Z,7.70
2019-01-29T12:30:33.155Z,4.90
2019-01-29T12:31:33.240Z,8.10
2019-01-29T12:32:33.330Z,9.40
2019-01-29T12:33:33.418Z,6.20
2019-01-29T12:34:33.523Z,7.90
2019-01-29T12:35:33.598Z,6.90
2019-01-29T12:36:33.695Z,7.80
2019-01-29T12:37:33.777Z,6.90
2019-01-29T12:38:33.860Z,7.70
2019-01-29T12:39:33.966Z,7.30
2019-01-29T12:40:34.048Z,9.20
2019-01-29T12:41:34.148Z,9.50
2019-01-29T12:42:34.262Z,9.90
2019-01-29T12:43:34.325Z,9.10
2019-01-29T12:44:34.413Z,12.00
2019-01-29T12:45:34.500Z,10.50
2019-01-29T12:46:34.591Z,11.20
2019-01-29T12:47:34.680Z,11.50
2019-01-29T12:48:34.774Z,10.50
2019-01-29T12:49:34.863Z,13.30
2019-01-29T12:50:34.951Z,13.70
2019-01-29T12:51:35.043Z,10.90
2019-01-29T12:52:35.128Z,9.30
2019-01-29T12:53:35.215Z,11.40
2019-01-29T12:54:35.304Z,11.00
2019-01-29T12:55:35.395Z,12.50
2019-01-29T12:56:35.484Z,12.80
2019-01-29T12:57:35.574Z,12.70
2019-01-29T12:58:35.663Z,10.50
2019-01-29T12:59:35.751Z,10.40
2019-01-29T13:00:35.840Z,12.20
2019-01-29T13:01:35.928Z,10.80
2019-01-29T13:02:36.018Z,11.40
2019-01-29T13:03:36.108Z,11.80
2019-01-29T13:04:36.193Z,10.40